createdAt,value
2023-01-19T00:01:34.736Z,0.80
2023-01-19T00:06:36.449Z,0.38
2023-01-19T00:11:38.483Z,0.38
2023-01-19T00:16:40.137Z,0.40
2023-01-19T00:21:41.765Z,0.50
2023-01-19T00:26:43.438Z,0.47
2023-01-19T00:31:45.246Z,0.60
2023-01-19T00:36:46.972Z,0.60
2023-01-19T00:42:06.959Z,0.50
2023-01-19T00:47:08.615Z,0.40
2023-01-19T00:52:11.008Z,0.60
2023-01-19T00:57:12.827Z,0.68
2023-01-19T01:02:14.739Z,0.60
2023-01-19T01:07:16.545Z,1.05
2023-01-19T01:12:18.229Z,0.52
2023-01-19T01:17:24.970Z,0.40
2023-01-19T01:22:27.566Z,1.08
2023-01-19T01:27:29.250Z,0.47
2023-01-19T01:32:30.948Z,0.50
2023-01-19T01:37:32.707Z,0.60
2023-01-19T01:42:34.946Z,0.50
2023-01-19T01:47:44.443Z,0.50
2023-01-19T01:53:08.621Z,0.50
2023-01-19T01:58:11.609Z,0.52
2023-01-19T02:03:13.319Z,0.70
2023-01-19T02:08:38.873Z,0.40
2023-01-19T02:13:45.271Z,0.60
2023-01-19T02:18:48.197Z,0.50
2023-01-19T02:23:52.668Z,0.60
2023-01-19T02:29:02.572Z,0.57
2023-01-19T02:34:06.328Z,0.70
2023-01-19T02:39:09.837Z,0.55
2023-01-19T02:44:13.654Z,0.50
2023-01-19T02:49:15.492Z,0.60
2023-01-19T02:54:36.461Z,0.35
2023-01-19T02:59:56.204Z,0.50
2023-01-19T03:05:26.725Z,0.50
2023-01-19T03:10:32.601Z,0.50
2023-01-19T03:15:46.855Z,0.50
2023-01-19T03:20:53.708Z,0.43
2023-01-19T03:25:58.011Z,0.57
2023-01-19T03:31:05.654Z,0.50
2023-01-19T03:36:14.471Z,0.90
2023-01-19T03:41:19.735Z,0.60
2023-01-19T03:46:23.837Z,0.65
2023-01-19T03:51:26.234Z,0.70
2023-01-19T03:56:27.909Z,0.47
2023-01-19T04:01:29.666Z,0.80
2023-01-19T04:06:32.225Z,0.60
2023-01-19T04:11:34.302Z,0.60
2023-01-19T04:16:36.018Z,0.52
2023-01-19T04:21:37.681Z,0.80
2023-01-19T04:26:39.341Z,0.98
2023-01-19T04:31:41.301Z,0.60
2023-01-19T04:36:43.051Z,0.60
2023-01-19T04:41:44.779Z,0.50
2023-01-19T04:46:46.591Z,0.50
2023-01-19T04:51:48.543Z,0.55
2023-01-19T04:56:50.283Z,0.50
2023-01-19T05:01:52.207Z,0.70
2023-01-19T05:06:54.463Z,0.60
2023-01-19T05:11:56.261Z,0.70
2023-01-19T05:16:58.044Z,0.50
2023-01-19T05:21:59.729Z,0.60
2023-01-19T05:27:02.024Z,0.82
2023-01-19T05:32:03.972Z,0.82
2023-01-19T05:37:05.809Z,0.65
2023-01-19T05:42:07.543Z,0.50
2023-01-19T05:47:09.187Z,0.80
2023-01-19T05:52:10.884Z,1.00
2023-01-19T05:57:12.783Z,0.57
2023-01-19T06:02:14.526Z,0.68
2023-01-19T06:07:16.521Z,0.60
2023-01-19T06:12:18.188Z,1.00
2023-01-19T06:17:20.519Z,1.40
2023-01-19T06:22:23.256Z,1.23
2023-01-19T06:27:24.919Z,0.80
2023-01-19T06:32:26.574Z,0.85
2023-01-19T06:37:30.571Z,1.45
2023-01-19T06:42:32.625Z,0.65
2023-01-19T06:47:34.585Z,0.70
2023-01-19T06:52:42.688Z,0.68
2023-01-19T06:57:44.723Z,0.68
2023-01-19T07:02:46.423Z,0.80
2023-01-19T07:07:57.765Z,0.70
2023-01-19T07:12:59.880Z,1.20
2023-01-19T07:18:05.724Z,0.98
2023-01-19T07:23:07.411Z,0.80
2023-01-19T07:28:09.422Z,0.80
2023-01-19T07:33:11.179Z,0.70
2023-01-19T07:38:12.822Z,0.82
2023-01-19T07:43:15.594Z,1.02
2023-01-19T07:48:17.300Z,1.00
2023-01-19T07:53:19.334Z,1.08
2023-01-19T07:58:20.975Z,0.73
2023-01-19T08:03:22.895Z,1.35
2023-01-19T08:08:24.576Z,0.90
2023-01-19T08:13:26.572Z,1.08
2023-01-19T08:18:28.249Z,0.85
2023-01-19T08:23:29.940Z,1.00
2023-01-19T08:28:31.613Z,1.67
2023-01-19T08:33:33.287Z,2.63
2023-01-19T08:38:35.028Z,2.08
2023-01-19T08:43:38.118Z,2.05
2023-01-19T08:48:40.165Z,2.58
2023-01-19T08:53:42.980Z,2.42
2023-01-19T08:58:49.389Z,2.20
2023-01-19T09:03:58.289Z,2.45
2023-01-19T09:09:00.230Z,2.85
2023-01-19T09:14:02.451Z,2.13
2023-01-19T09:19:04.663Z,1.90
2023-01-19T09:24:06.678Z,1.40
2023-01-19T09:29:08.466Z,1.95
2023-01-19T09:34:11.137Z,2.05
2023-01-19T09:39:12.930Z,1.45
2023-01-19T09:44:24.403Z,1.10
2023-01-19T09:49:32.899Z,1.15
2023-01-19T09:54:53.160Z,1.23
2023-01-19T09:59:59.857Z,1.15
2023-01-19T10:05:15.788Z,1.25
2023-01-19T10:10:21.970Z,1.13
2023-01-19T10:15:54.908Z,0.88
2023-01-19T10:21:05.923Z,1.58
2023-01-19T10:26:22.186Z,0.70
2023-01-19T10:31:24.939Z,0.82
2023-01-19T10:36:36.308Z,1.08
2023-01-19T10:41:47.093Z,1.20
2023-01-19T10:46:50.573Z,1.15
2023-01-19T10:51:53.052Z,1.00
2023-01-19T10:56:58.726Z,1.00
2023-01-19T11:02:10.694Z,1.05
2023-01-19T11:07:20.124Z,0.63
2023-01-19T11:12:24.126Z,0.80
2023-01-19T11:17:26.541Z,1.00
2023-01-19T11:22:32.608Z,0.98
2023-01-19T11:27:37.533Z,1.30
2023-01-19T11:32:39.526Z,0.98
2023-01-19T11:37:43.005Z,1.13
2023-01-19T11:42:45.044Z,0.70
2023-01-19T11:47:51.903Z,1.20
2023-01-19T11:53:06.198Z,0.90
2023-01-19T11:58:15.587Z,0.90
2023-01-19T12:03:33.099Z,0.77
2023-01-19T12:08:39.964Z,1.20
2023-01-19T12:13:44.234Z,1.10
2023-01-19T12:18:51.243Z,1.58
2023-01-19T12:24:18.803Z,1.10
2023-01-19T12:29:24.121Z,0.90
2023-01-19T12:34:26.208Z,0.90
2023-01-19T12:39:28.021Z,0.85
2023-01-19T12:44:34.286Z,1.05
2023-01-19T12:49:39.083Z,1.05
2023-01-19T12:55:03.055Z,1.00
2023-01-19T13:00:29.057Z,0.82
2023-01-19T13:05:32.681Z,1.10
2023-01-19T13:10:55.618Z,1.20
2023-01-19T13:16:27.816Z,0.90
2023-01-19T13:21:46.803Z,1.23
2023-01-19T13:27:00.267Z,1.10
2023-01-19T13:32:05.851Z,1.02
2023-01-19T13:37:18.556Z,1.20
2023-01-19T13:42:34.360Z,0.88
2023-01-19T13:47:48.315Z,0.93
2023-01-19T13:52:54.223Z,1.23
2023-01-19T13:57:56.719Z,1.48
2023-01-19T14:03:01.082Z,1.73
2023-01-19T14:08:13.609Z,1.50
2023-01-19T14:13:16.753Z,1.15
2023-01-19T14:18:26.195Z,1.10
2023-01-19T14:23:47.857Z,1.00
2023-01-19T14:28:49.805Z,1.02
2023-01-19T14:33:55.678Z,1.10
2023-01-19T14:38:59.828Z,1.00
2023-01-19T14:44:03.339Z,0.85
2023-01-19T14:49:06.805Z,1.60
2023-01-19T14:54:18.677Z,1.27
2023-01-19T14:59:20.422Z,1.17
2023-01-19T15:04:23.308Z,1.00
2023-01-19T15:09:25.596Z,1.15
2023-01-19T15:14:28.147Z,0.90
2023-01-19T15:19:30.081Z,1.20
2023-01-19T15:24:31.836Z,0.90
2023-01-19T15:29:34.444Z,0.70
2023-01-19T15:34:36.122Z,0.90
2023-01-19T15:39:37.954Z,1.13
2023-01-19T15:44:40.014Z,0.93
2023-01-19T15:49:41.900Z,0.63
2023-01-19T15:54:43.656Z,0.95
2023-01-19T15:59:45.353Z,0.93
2023-01-19T16:04:50.150Z,0.90
2023-01-19T16:09:52.087Z,0.85
2023-01-19T16:14:53.781Z,0.60
2023-01-19T16:19:55.433Z,1.25
2023-01-19T16:24:57.446Z,0.68
2023-01-19T16:30:04.807Z,0.93
2023-01-19T16:35:07.014Z,0.60
2023-01-19T16:40:09.715Z,0.60
2023-01-19T16:45:11.542Z,0.50
2023-01-19T16:50:13.474Z,0.70
2023-01-19T16:55:15.201Z,1.30
2023-01-19T17:00:17.261Z,0.80
2023-01-19T17:05:18.956Z,0.75
2023-01-19T17:10:20.796Z,1.30
2023-01-19T17:15:22.638Z,0.88
2023-01-19T17:20:24.374Z,1.10
2023-01-19T17:25:26.078Z,0.95
2023-01-19T17:30:27.857Z,1.25
2023-01-19T17:35:29.578Z,1.30
2023-01-19T17:40:31.476Z,0.90
2023-01-19T17:45:36.830Z,0.93
2023-01-19T17:50:38.499Z,0.90
2023-01-19T17:55:40.451Z,0.80
2023-01-19T18:00:42.141Z,0.90
2023-01-19T18:05:43.841Z,0.85
2023-01-19T18:10:56.690Z,0.60
2023-01-19T18:16:03.061Z,0.55
2023-01-19T18:21:08.392Z,1.00
2023-01-19T18:26:15.876Z,0.70
2023-01-19T18:31:19.226Z,0.85
2023-01-19T18:36:21.121Z,0.90
2023-01-19T18:41:22.874Z,0.90
2023-01-19T18:46:25.532Z,0.70
2023-01-19T18:51:28.432Z,0.70
2023-01-19T18:56:30.127Z,0.95
2023-01-19T19:01:35.211Z,0.90
2023-01-19T19:06:36.933Z,0.50
2023-01-19T19:11:38.751Z,0.70
2023-01-19T19:16:40.561Z,0.65
2023-01-19T19:21:43.274Z,0.55
2023-01-19T19:26:45.552Z,0.50
2023-01-19T19:31:47.392Z,0.50
2023-01-19T19:36:49.470Z,0.65
2023-01-19T19:41:51.195Z,1.25
2023-01-19T19:46:53.034Z,0.73
2023-01-19T19:51:54.783Z,1.10
2023-01-19T19:56:56.637Z,1.50
2023-01-19T20:01:58.694Z,1.15
2023-01-19T20:07:00.501Z,0.98
2023-01-19T20:12:02.229Z,1.13
2023-01-19T20:17:05.372Z,1.10
2023-01-19T20:22:07.758Z,1.27
2023-01-19T20:27:09.679Z,1.00
2023-01-19T20:32:11.650Z,1.23
2023-01-19T20:37:13.364Z,0.85
2023-01-19T20:42:16.657Z,1.10
2023-01-19T20:47:18.705Z,1.10
2023-01-19T20:52:21.708Z,0.95
2023-01-19T20:57:23.705Z,1.10
2023-01-19T21:02:28.412Z,1.20
2023-01-19T21:07:30.355Z,1.40
2023-01-19T21:12:32.050Z,1.25
2023-01-19T21:17:34.025Z,1.38
2023-01-19T21:22:35.990Z,1.10
2023-01-19T21:27:37.679Z,0.80
2023-01-19T21:32:39.523Z,1.45
2023-01-19T21:37:41.301Z,0.80
2023-01-19T21:42:42.978Z,2.10
2023-01-19T21:47:44.653Z,1.27
2023-01-19T21:52:46.343Z,1.08
2023-01-19T21:57:48.059Z,1.52
2023-01-19T22:03:02.975Z,1.90
2023-01-19T22:08:06.649Z,1.17
2023-01-19T22:13:09.854Z,0.73
2023-01-19T22:18:11.710Z,1.23
2023-01-19T22:23:13.558Z,2.08
2023-01-19T22:28:15.249Z,1.80
2023-01-19T22:33:16.971Z,1.13
2023-01-19T22:38:19.037Z,1.02
2023-01-19T22:43:20.724Z,1.17
2023-01-19T22:48:22.443Z,0.90
2023-01-19T22:53:24.100Z,0.50
2023-01-19T22:58:25.789Z,0.90
2023-01-19T23:03:29.111Z,1.42
2023-01-19T23:08:30.864Z,1.08
2023-01-19T23:13:32.661Z,0.82
2023-01-19T23:18:34.387Z,1.20
2023-01-19T23:23:36.786Z,0.65
2023-01-19T23:28:39.576Z,0.63
2023-01-19T23:33:41.918Z,0.70
2023-01-19T23:38:49.035Z,1.08
2023-01-19T23:43:51.445Z,0.93
2023-01-19T23:48:53.417Z,1.23
2023-01-19T23:53:56.215Z,0.98
2023-01-19T23:59:00.513Z,1.25
